עמוד ראשי
METAR-TAF:

METAR-TAF

שדות תעופה :

קמישלי, סוריה

קו רוחב: 37-03N, קו אורך: 041-13E, גובה: 455מטר

תצפית מזג אוויר נוכחית

הדו"ח נערך לפני 15 שעות ו 51דקות, בשעה 21:00 UTC
רוח 4קשר מכיוון מזרח
טמפרטורת 25 צלסיוס
לחות 89%
לחץ 1008 hPa
ראות 10 קילומטר או יותר
מעט עננים בגובה 3000רגל

METAR: OSKL 242100Z 09004KT 9999 FEW030 25/23 Q1008

זמן: 15:51 (12:51 UTC)


TAF: חסר

תצפיות ותחזיות מזג אוויר לגבי יותר מ- 4,000 שדות תעופה ברחבי העולם. דוחות METAR ו- TAF.

התחנות הזמינות מסומנות בנקודות צהובות ואדומות על גבי המפה.

העבר את העכבר לנקודה הצבעונית על מנת לראות את שם התחנה.

לאחר מכן, לחץ כדי לראות את תוכן ואת תחזיות מזג האוויר.

כדי לשנות את המפה: לחץ על הכפתורים הירוקים עם הפלוס השחור כדי להתקרב; על הכפתור הירוק עם המקף כדי להתרחק; או בחיצים הירוקים למפות סמוכות.


METAR-TAF: